Time,TemperatureF,DewpointF,PressureIn,WindDirection,WindDirectionDegrees,WindSpeedMPH,WindSpeedGustMPH,Humidity,HourlyPrecipIn,Conditions,Clouds,dailyrainin,SoftwareType,DateUTC
2013-03-21 00:03:00,36.0,20.0,29.98,SE,146,5.0,11.0,51,0.00,,,0.00,,2013-03-21 05:03:00,
2013-03-21 00:12:00,36.0,20.0,29.98,SE,146,5.0,11.0,51,0.00,,,0.00,,2013-03-21 05:12:00,
2013-03-21 00:22:00,36.0,20.0,29.97,SE,145,7.0,15.0,52,0.00,,,0.00,,2013-03-21 05:22:00,
2013-03-21 00:32:00,36.0,20.0,29.97,SE,130,8.0,15.0,52,0.00,,,0.00,,2013-03-21 05:32:00,
2013-03-21 00:43:00,36.0,20.0,29.97,SE,130,8.0,15.0,52,0.00,,,0.00,,2013-03-21 05:43:00,
2013-03-21 00:52:00,35.0,19.0,29.96,SE,130,7.0,15.0,52,0.00,,,0.00,,2013-03-21 05:52:00,
2013-03-21 01:03:00,35.0,19.0,29.96,SE,127,6.0,13.0,52,0.00,,,0.00,,2013-03-21 06:03:00,
2013-03-21 01:12:00,35.0,19.0,29.96,SE,127,6.0,13.0,52,0.00,,,0.00,,2013-03-21 06:12:00,
2013-03-21 01:22:00,35.0,19.0,29.96,SE,138,8.0,15.0,52,0.00,,,0.00,,2013-03-21 06:22:00,
2013-03-21 01:32:00,35.0,20.0,29.96,SE,133,6.0,13.0,53,0.00,,,0.00,,2013-03-21 06:32:00,
2013-03-21 01:42:00,35.0,20.0,29.96,SE,133,6.0,13.0,53,0.00,,,0.00,,2013-03-21 06:42:00,
2013-03-21 01:52:00,35.0,20.0,29.94,SE,126,8.0,13.0,53,0.00,,,0.00,,2013-03-21 06:52:00,
2013-03-21 02:02:00,35.0,20.0,29.95,SE,126,5.0,15.0,53,0.00,,,0.00,,2013-03-21 07:02:00,
2013-03-21 02:12:00,35.0,20.0,29.95,SE,126,5.0,15.0,53,0.00,,,0.00,,2013-03-21 07:12:00,
2013-03-21 02:22:00,35.0,20.0,29.93,SE,144,6.0,11.0,53,0.00,,,0.00,,2013-03-21 07:22:00,
2013-03-21 02:32:00,35.0,20.0,29.92,SE,127,7.0,16.0,53,0.00,,,0.00,,2013-03-21 07:32:00,
2013-03-21 02:42:00,35.0,20.0,29.92,SE,127,7.0,16.0,53,0.00,,,0.00,,2013-03-21 07:42:00,
2013-03-21 02:52:00,35.0,21.0,29.91,SE,146,8.0,14.0,56,0.00,,,0.00,,2013-03-21 07:52:00,
2013-03-21 03:02:00,35.0,20.0,29.91,SE,133,4.0,13.0,55,0.00,,,0.00,,2013-03-21 08:02:00,
2013-03-21 03:13:00,35.0,20.0,29.91,SE,133,4.0,13.0,55,0.00,,,0.00,,2013-03-21 08:13:00,
2013-03-21 03:23:00,34.0,19.0,29.90,SE,139,8.0,14.0,54,0.00,,,0.00,,2013-03-21 08:23:00,
2013-03-21 03:33:00,34.0,19.0,29.89,SE,146,11.0,18.0,54,0.00,,,0.00,,2013-03-21 08:33:00,
2013-03-21 03:42:00,34.0,19.0,29.89,SE,146,11.0,18.0,54,0.00,,,0.00,,2013-03-21 08:42:00,
2013-03-21 03:52:00,34.0,20.0,29.89,SE,143,7.0,11.0,55,0.00,,,0.00,,2013-03-21 08:52:00,
2013-03-21 04:02:00,34.0,20.0,29.88,SE,146,7.0,12.0,55,0.00,,,0.00,,2013-03-21 09:02:00,
2013-03-21 04:11:00,34.0,20.0,29.88,SE,146,7.0,12.0,55,0.00,,,0.00,,2013-03-21 09:11:00,
2013-03-21 04:21:00,34.0,19.0,29.88,SSE,163,7.0,13.0,54,0.00,,,0.00,,2013-03-21 09:21:00,
2013-03-21 04:33:00,34.0,20.0,29.88,SE,130,6.0,12.0,55,0.00,,,0.00,,2013-03-21 09:33:00,
2013-03-21 04:43:00,34.0,20.0,29.88,SE,130,6.0,12.0,55,0.00,,,0.00,,2013-03-21 09:43:00,
2013-03-21 04:53:00,34.0,20.0,29.85,SE,133,11.0,19.0,55,0.00,,,0.00,,2013-03-21 09:53:00,
2013-03-21 05:03:00,34.0,20.0,29.84,SSE,148,8.0,16.0,55,0.00,,,0.00,,2013-03-21 10:03:00,
2013-03-21 05:12:00,34.0,20.0,29.84,SSE,148,8.0,16.0,55,0.00,,,0.00,,2013-03-21 10:12:00,
2013-03-21 05:22:00,33.0,19.0,29.85,SE,138,9.0,14.0,55,0.00,,,0.00,,2013-03-21 10:22:00,
2013-03-21 05:33:00,33.0,19.0,29.85,SE,138,7.0,13.0,56,0.00,,,0.00,,2013-03-21 10:33:00,
2013-03-21 05:42:00,33.0,19.0,29.85,SE,138,7.0,13.0,56,0.00,,,0.00,,2013-03-21 10:42:00,
2013-03-21 05:53:00,33.0,19.0,29.84,SE,138,8.0,15.0,57,0.00,,,0.00,,2013-03-21 10:53:00,
2013-03-21 06:03:00,33.0,20.0,29.85,SSE,150,8.0,18.0,58,0.00,,,0.00,,2013-03-21 11:03:00,
2013-03-21 06:12:00,33.0,20.0,29.85,SSE,150,8.0,18.0,58,0.00,,,0.00,,2013-03-21 11:12:00,
2013-03-21 06:22:00,32.0,19.0,29.84,ESE,113,7.0,16.0,59,0.00,,,0.00,,2013-03-21 11:22:00,
2013-03-21 06:33:00,32.0,19.0,29.84,SE,140,6.0,14.0,59,0.00,,,0.00,,2013-03-21 11:33:00,
2013-03-21 06:43:00,32.0,19.0,29.84,SE,140,6.0,14.0,59,0.00,,,0.00,,2013-03-21 11:43:00,
2013-03-21 06:52:00,32.0,19.0,29.84,SE,134,6.0,13.0,59,0.00,,,0.00,,2013-03-21 11:52:00,
2013-03-21 07:02:00,32.0,19.0,29.84,SE,139,8.0,14.0,58,0.00,,,0.00,,2013-03-21 12:02:00,
2013-03-21 07:12:00,32.0,19.0,29.84,SE,139,8.0,14.0,58,0.00,,,0.00,,2013-03-21 12:12:00,
2013-03-21 07:22:00,31.0,18.0,29.83,SE,125,8.0,16.0,59,0.00,,,0.00,,2013-03-21 12:22:00,
2013-03-21 07:33:00,31.0,18.0,29.83,ESE,123,9.0,18.0,59,0.00,,,0.00,,2013-03-21 12:33:00,
2013-03-21 07:42:00,31.0,18.0,29.83,ESE,123,9.0,18.0,59,0.00,,,0.00,,2013-03-21 12:42:00,
2013-03-21 07:52:00,31.0,18.0,29.83,SSE,163,9.0,17.0,59,0.00,,,0.00,,2013-03-21 12:52:00,
2013-03-21 08:02:00,31.0,18.0,29.83,SSE,163,9.0,17.0,59,0.00,,,0.00,,2013-03-21 13:02:00,
2013-03-21 08:12:00,31.0,18.0,29.83,SSE,163,9.0,17.0,59,0.00,,,0.00,,2013-03-21 13:12:00,
2013-03-21 08:22:00,30.0,18.0,29.83,SE,134,8.0,18.0,61,0.00,,,0.00,,2013-03-21 13:22:00,
2013-03-21 08:32:00,30.0,19.0,29.83,SE,129,6.0,13.0,62,0.00,,,0.00,,2013-03-21 13:32:00,
2013-03-21 08:42:00,30.0,19.0,29.83,SE,129,6.0,13.0,62,0.00,,,0.00,,2013-03-21 13:42:00,
2013-03-21 08:52:00,30.0,18.0,29.83,SSE,157,8.0,14.0,61,0.00,,,0.00,,2013-03-21 13:52:00,
2013-03-21 09:02:00,30.0,18.0,29.82,SE,136,8.0,15.0,60,0.00,,,0.00,,2013-03-21 14:02:00,
2013-03-21 09:12:00,30.0,17.0,29.82,SE,128,7.0,16.0,58,0.00,,,0.00,,2013-03-21 14:12:00,
2013-03-21 09:22:00,30.0,17.0,29.82,SE,128,7.0,16.0,58,0.00,,,0.00,,2013-03-21 14:22:00,
2013-03-21 09:32:00,31.0,17.0,29.82,SE,137,7.0,15.0,56,0.00,,,0.00,,2013-03-21 14:32:00,
2013-03-21 09:42:00,31.0,17.0,29.82,SE,137,7.0,15.0,56,0.00,,,0.00,,2013-03-21 14:42:00,
2013-03-21 09:52:00,32.0,18.0,29.82,SE,143,5.0,15.0,55,0.00,,,0.00,,2013-03-21 14:52:00,
2013-03-21 10:03:00,32.0,17.0,29.82,SSE,157,6.0,15.0,54,0.00,,,0.00,,2013-03-21 15:03:00,
2013-03-21 10:12:00,32.0,17.0,29.82,SSE,157,6.0,15.0,54,0.00,,,0.00,,2013-03-21 15:12:00,
2013-03-21 10:22:00,32.0,16.0,29.82,SE,144,10.0,16.0,52,0.00,,,0.00,,2013-03-21 15:22:00,
2013-03-21 10:33:00,33.0,17.0,29.82,SE,127,9.0,18.0,51,0.00,,,0.00,,2013-03-21 15:33:00,
2013-03-21 10:42:00,33.0,17.0,29.82,SE,127,9.0,18.0,51,0.00,,,0.00,,2013-03-21 15:42:00,
2013-03-21 10:53:00,33.0,17.0,29.82,SE,127,9.0,18.0,51,0.00,,,0.00,,2013-03-21 15:53:00,
2013-03-21 11:03:00,34.0,16.0,29.79,SE,129,9.0,21.0,48,0.00,,,0.00,,2013-03-21 16:03:00,
2013-03-21 11:12:00,34.0,16.0,29.79,SE,129,9.0,21.0,48,0.00,,,0.00,,2013-03-21 16:12:00,
2013-03-21 11:23:00,35.0,17.0,29.78,SE,143,8.0,23.0,48,0.00,,,0.00,,2013-03-21 16:23:00,
2013-03-21 11:33:00,36.0,18.0,29.78,SSE,155,7.0,19.0,47,0.00,,,0.00,,2013-03-21 16:33:00,
2013-03-21 11:42:00,36.0,18.0,29.78,SSE,155,7.0,19.0,47,0.00,,,0.00,,2013-03-21 16:42:00,
2013-03-21 11:52:00,36.0,17.0,29.78,SSE,156,11.0,24.0,45,0.00,,,0.00,,2013-03-21 16:52:00,
2013-03-21 12:02:00,37.0,18.0,29.78,SE,139,10.0,19.0,45,0.00,,,0.00,,2013-03-21 17:02:00,
2013-03-21 12:12:00,37.0,18.0,29.78,SE,139,10.0,19.0,45,0.00,,,0.00,,2013-03-21 17:12:00,
2013-03-21 12:23:00,38.0,18.0,29.78,SE,138,9.0,19.0,44,0.00,,,0.00,,2013-03-21 17:23:00,
2013-03-21 12:33:00,39.0,18.0,29.77,SSE,150,9.0,17.0,43,0.00,,,0.00,,2013-03-21 17:33:00,
2013-03-21 12:42:00,39.0,18.0,29.77,SSE,150,9.0,17.0,43,0.00,,,0.00,,2013-03-21 17:42:00,
2013-03-21 12:52:00,39.0,18.0,29.75,South,176,9.0,19.0,43,0.00,,,0.00,,2013-03-21 17:52:00,
2013-03-21 13:02:00,40.0,19.0,29.75,SSE,148,12.0,19.0,42,0.00,,,0.00,,2013-03-21 18:02:00,
2013-03-21 13:12:00,40.0,19.0,29.75,SSE,148,12.0,19.0,42,0.00,,,0.00,,2013-03-21 18:12:00,
2013-03-21 13:23:00,39.0,18.0,29.75,SE,144,10.0,20.0,43,0.00,,,0.00,,2013-03-21 18:23:00,
2013-03-21 13:32:00,40.0,19.0,29.75,SE,125,8.0,19.0,43,0.00,,,0.00,,2013-03-21 18:32:00,
2013-03-21 13:42:00,40.0,19.0,29.75,SE,125,8.0,19.0,43,0.00,,,0.00,,2013-03-21 18:42:00,
2013-03-21 13:52:00,42.0,19.0,29.75,SSE,163,8.0,16.0,40,0.00,,,0.00,,2013-03-21 18:52:00,
2013-03-21 14:02:00,44.0,21.0,29.73,SE,126,4.0,13.0,40,0.00,,,0.00,,2013-03-21 19:02:00,
2013-03-21 14:12:00,44.0,21.0,29.73,SE,126,4.0,13.0,40,0.00,,,0.00,,2013-03-21 19:12:00,
2013-03-21 14:22:00,44.0,20.0,29.72,SE,134,6.0,19.0,38,0.00,,,0.00,,2013-03-21 19:22:00,
2013-03-21 14:32:00,44.0,21.0,29.72,SE,146,5.0,14.0,39,0.00,,,0.00,,2013-03-21 19:32:00,
2013-03-21 14:42:00,44.0,21.0,29.72,SE,146,5.0,14.0,39,0.00,,,0.00,,2013-03-21 19:42:00,
2013-03-21 14:52:00,44.0,20.0,29.72,SSE,166,8.0,14.0,38,0.00,,,0.00,,2013-03-21 19:52:00,
2013-03-21 15:02:00,44.0,21.0,29.71,SE,139,7.0,12.0,39,0.00,,,0.00,,2013-03-21 20:02:00,
2013-03-21 15:12:00,44.0,21.0,29.71,SE,139,7.0,12.0,39,0.00,,,0.00,,2013-03-21 20:12:00,
2013-03-21 15:22:00,46.0,22.0,29.71,SE,127,6.0,15.0,38,0.00,,,0.00,,2013-03-21 20:22:00,
2013-03-21 15:33:00,46.0,21.0,29.71,SE,144,3.0,14.0,37,0.00,,,0.00,,2013-03-21 20:33:00,
2013-03-21 15:42:00,46.0,21.0,29.71,SE,144,3.0,14.0,37,0.00,,,0.00,,2013-03-21 20:42:00,
2013-03-21 15:52:00,46.0,22.0,29.71,South,171,5.0,18.0,38,0.00,,,0.00,,2013-03-21 20:52:00,
2013-03-21 16:02:00,46.0,21.0,29.70,SE,128,4.0,13.0,37,0.00,,,0.00,,2013-03-21 21:02:00,
2013-03-21 16:12:00,46.0,21.0,29.70,SE,128,4.0,13.0,37,0.00,,,0.00,,2013-03-21 21:12:00,
2013-03-21 16:22:00,46.0,21.0,29.69,SE,144,6.0,15.0,36,0.00,,,0.00,,2013-03-21 21:22:00,
2013-03-21 16:33:00,45.0,21.0,29.70,South,173,7.0,14.0,38,0.00,,,0.00,,2013-03-21 21:33:00,
2013-03-21 16:43:00,45.0,21.0,29.70,South,173,7.0,14.0,38,0.00,,,0.00,,2013-03-21 21:43:00,
2013-03-21 16:53:00,46.0,22.0,29.70,ESE,115,6.0,13.0,38,0.00,,,0.00,,2013-03-21 21:53:00,
2013-03-21 17:03:00,45.0,21.0,29.71,ESE,119,6.0,14.0,38,0.00,,,0.00,,2013-03-21 22:03:00,
2013-03-21 17:13:00,45.0,21.0,29.71,ESE,119,6.0,14.0,38,0.00,,,0.00,,2013-03-21 22:13:00,
2013-03-21 17:23:00,46.0,22.0,29.71,ESE,121,4.0,13.0,38,0.00,,,0.00,,2013-03-21 22:23:00,
2013-03-21 17:33:00,45.0,21.0,29.71,ESE,122,6.0,14.0,38,0.00,,,0.00,,2013-03-21 22:33:00,
2013-03-21 17:42:00,45.0,21.0,29.71,ESE,122,6.0,14.0,38,0.00,,,0.00,,2013-03-21 22:42:00,
2013-03-21 17:52:00,45.0,21.0,29.71,ESE,122,6.0,14.0,38,0.00,,,0.00,,2013-03-21 22:52:00,
2013-03-21 18:02:00,45.0,21.0,29.72,SE,142,5.0,12.0,38,0.00,,,0.00,,2013-03-21 23:02:00,
2013-03-21 18:12:00,45.0,21.0,29.72,SE,142,5.0,12.0,38,0.00,,,0.00,,2013-03-21 23:12:00,
2013-03-21 18:22:00,45.0,20.0,29.72,SSE,151,3.0,8.0,37,0.00,,,0.00,,2013-03-21 23:22:00,
2013-03-21 18:32:00,45.0,21.0,29.72,South,173,6.0,12.0,38,0.00,,,0.00,,2013-03-21 23:32:00,
2013-03-21 18:42:00,45.0,21.0,29.72,South,173,6.0,12.0,38,0.00,,,0.00,,2013-03-21 23:42:00,
2013-03-21 18:52:00,44.0,21.0,29.72,SSE,151,5.0,12.0,39,0.00,,,0.00,,2013-03-21 23:52:00,
2013-03-21 19:02:00,45.0,22.0,29.72,SSE,159,5.0,10.0,39,0.00,,,0.00,,2013-03-22 00:02:00,
2013-03-21 19:12:00,45.0,22.0,29.72,SSE,159,5.0,10.0,39,0.00,,,0.00,,2013-03-22 00:12:00,
2013-03-21 19:22:00,44.0,21.0,29.73,SE,126,5.0,11.0,40,0.00,,,0.00,,2013-03-22 00:22:00,
2013-03-21 19:32:00,43.0,20.0,29.74,ESE,107,4.0,11.0,40,0.00,,,0.00,,2013-03-22 00:32:00,
2013-03-21 19:42:00,43.0,20.0,29.74,ESE,107,4.0,11.0,40,0.00,,,0.00,,2013-03-22 00:42:00,
2013-03-21 19:52:00,42.0,20.0,29.74,SE,146,3.0,10.0,41,0.00,,,0.00,,2013-03-22 00:52:00,
2013-03-21 20:02:00,40.0,25.0,29.75,SE,145,6.0,13.0,54,0.00,,,0.00,,2013-03-22 01:02:00,
2013-03-21 20:12:00,40.0,25.0,29.75,SE,145,6.0,13.0,54,0.00,,,0.00,,2013-03-22 01:12:00,
2013-03-21 20:22:00,38.0,25.0,29.76,SE,129,5.0,14.0,60,0.00,,,0.00,,2013-03-22 01:22:00,
2013-03-21 20:32:00,37.0,26.0,29.78,ESE,123,6.0,13.0,64,0.00,,,0.00,,2013-03-22 01:32:00,
2013-03-21 20:42:00,37.0,26.0,29.78,ESE,123,6.0,13.0,64,0.00,,,0.00,,2013-03-22 01:42:00,
2013-03-21 20:52:00,37.0,27.0,29.79,SSE,161,5.0,13.0,66,0.00,,,0.00,,2013-03-22 01:52:00,
2013-03-21 21:02:00,36.0,26.0,29.80,ESE,109,4.0,12.0,67,0.00,,,0.00,,2013-03-22 02:02:00,
2013-03-21 21:12:00,36.0,26.0,29.80,ESE,109,4.0,12.0,67,0.00,,,0.00,,2013-03-22 02:12:00,
2013-03-21 21:22:00,36.0,27.0,29.81,SE,131,5.0,12.0,69,0.00,,,0.00,,2013-03-22 02:22:00,
2013-03-21 21:32:00,36.0,27.0,29.81,ESE,120,4.0,10.0,69,0.00,,,0.00,,2013-03-22 02:32:00,
2013-03-21 21:42:00,36.0,27.0,29.81,ESE,120,4.0,10.0,69,0.00,,,0.00,,2013-03-22 02:42:00,
2013-03-21 21:52:00,36.0,27.0,29.83,SSE,164,4.0,10.0,70,0.00,,,0.00,,2013-03-22 02:52:00,
2013-03-21 22:02:00,35.0,27.0,29.84,ESE,123,2.0,9.0,71,0.00,,,0.00,,2013-03-22 03:02:00,
2013-03-21 22:12:00,35.0,27.0,29.84,ESE,123,2.0,9.0,71,0.00,,,0.00,,2013-03-22 03:12:00,
2013-03-21 22:22:00,35.0,26.0,29.85,SSE,159,4.0,12.0,70,0.00,,,0.00,,2013-03-22 03:22:00,
2013-03-21 22:33:00,35.0,27.0,29.86,SSE,151,3.0,9.0,72,0.00,,,0.00,,2013-03-22 03:33:00,
2013-03-21 22:43:00,35.0,27.0,29.86,SSE,151,3.0,9.0,72,0.00,,,0.00,,2013-03-22 03:43:00,
2013-03-21 22:52:00,34.0,28.0,29.87,South,175,5.0,13.0,77,0.00,,,0.00,,2013-03-22 03:52:00,
2013-03-21 23:03:00,32.0,28.0,29.87,SE,141,3.0,9.0,85,0.00,,,0.00,,2013-03-22 04:03:00,
2013-03-21 23:12:00,32.0,28.0,29.87,SE,141,3.0,9.0,85,0.00,,,0.00,,2013-03-22 04:12:00,
2013-03-21 23:23:00,32.0,29.0,29.88,SSE,149,1.0,7.0,88,0.00,,,0.00,,2013-03-22 04:23:00,
2013-03-21 23:32:00,32.0,29.0,29.88,SE,142,2.0,7.0,87,0.00,,,0.00,,2013-03-22 04:32:00,
2013-03-21 23:43:00,32.0,29.0,29.88,SE,142,2.0,7.0,87,0.00,,,0.00,,2013-03-22 04:43:00,
2013-03-21 23:52:00,32.0,29.0,29.88,SE,143,2.0,8.0,89,0.00,,,0.00,,2013-03-22 04:52:00,